Bookmark and Share
Track history (hours):
 

Navios Pollux

Last reported at 2014-Apr-18 16:26 UTC. Time now 2014-Apr-19 09:34 UTC.
Position N 41°24' E 029°18'.

Length 292 m; draft 15.1 m.

Type: Cargo ship. MMSI: 370290000.

NotesDate/timePositionNaut miles runAvg speedWind from/ knotsBaromVisibWave heightAir tempDewpointWater temp
2014-Apr-18 16:26N 41°24' E 029°18'182 6.4
2014-Apr-17 12:12N 39°52' E 025°51'9 0.7
2014-Apr-17 00:04N 39°44' E 025°46'12513.1
2014-Apr-16 14:30N 37°51' E 024°36'1212.1
2014-Apr-16 13:29N 37°39' E 024°33'1713.4
2014-Apr-16 12:12N 37°26' E 024°19'1013.9
2014-Apr-16 11:28N 37°17' E 024°13'1314.0
2014-Apr-16 10:33N 37°05' E 024°09'1413.7
2014-Apr-16 09:33N 36°51' E 024°04'1313.1
2014-Apr-16 08:33N 36°41' E 023°54'46312.5
2014-Apr-14 19:33N 36°29' E 014°18'1313.3
2014-Apr-14 18:33N 36°33' E 014°02'2913.9
2014-Apr-14 16:30N 36°40' E 013°27'8113.6
2014-Apr-14 10:32N 37°06' E 011°51'1313.8
2014-Apr-14 09:34N 37°12' E 011°36'1414.1
2014-Apr-14 08:34N 37°18' E 011°20'1413.9
2014-Apr-14 07:33N 37°24' E 011°04'  
2014-Apr-12 00:32N 36°01' W 004°60'1515.5
2014-Apr-11 23:33N 35°59' W 005°18'2813.9
2014-Apr-11 21:33N 35°54' W 005°52'1613.5
2014-Apr-11 20:22N 35°54' W 006°12'2713.5
2014-Apr-11 18:23N 35°54' W 006°45'1113.3
2014-Apr-11 17:33N 35°54' W 006°58'7913.2
2014-Apr-11 11:32N 35°54' W 008°36'5313.2
2014-Apr-11 07:33N 36°25' W 009°29'1713.4
2014-Apr-11 06:19N 36°35' W 009°45'1513.6
2014-Apr-11 05:12N 36°45' W 010°00'913.2
2014-Apr-11 04:33N 36°47' W 010°11'1613.7
2014-Apr-11 03:25N 36°51' W 010°29'1213.6
2014-Apr-11 02:30N 36°54' W 010°44'1313.5
2014-Apr-11 01:33N 36°57' W 011°00'  

Dump ship's entire track history

sailing weather and tide predictions

Navios Pollux — 3FPO2 — position and weather